sensor_id;sensor_type;location;lat;lon;timestamp;temperature;humidity
46494;DHT22;53214;49.314;6.280;2024-02-28T00:01:02;4.50;99.90
46494;DHT22;53214;49.314;6.280;2024-02-28T00:03:29;4.50;99.90
46494;DHT22;53214;49.314;6.280;2024-02-28T00:05:58;4.50;99.90
46494;DHT22;53214;49.314;6.280;2024-02-28T00:08:25;4.50;99.90
46494;DHT22;53214;49.314;6.280;2024-02-28T00:10:52;4.60;99.90
46494;DHT22;53214;49.314;6.280;2024-02-28T00:13:19;4.60;99.90
46494;DHT22;53214;49.314;6.280;2024-02-28T00:15:47;4.60;99.90
46494;DHT22;53214;49.314;6.280;2024-02-28T00:18:13;4.60;99.90
46494;DHT22;53214;49.314;6.280;2024-02-28T00:20:40;4.60;99.90
46494;DHT22;53214;49.314;6.280;2024-02-28T00:23:07;4.70;99.90
46494;DHT22;53214;49.314;6.280;2024-02-28T00:25:34;4.70;99.90
46494;DHT22;53214;49.314;6.280;2024-02-28T00:28:01;4.70;99.90
46494;DHT22;53214;49.314;6.280;2024-02-28T00:30:28;4.70;99.90
46494;DHT22;53214;49.314;6.280;2024-02-28T00:32:55;4.70;99.90
46494;DHT22;53214;49.314;6.280;2024-02-28T00:35:22;4.70;99.90
46494;DHT22;53214;49.314;6.280;2024-02-28T00:37:49;4.80;99.90
46494;DHT22;53214;49.314;6.280;2024-02-28T00:40:16;4.80;99.90
46494;DHT22;53214;49.314;6.280;2024-02-28T00:42:42;4.80;99.90
46494;DHT22;53214;49.314;6.280;2024-02-28T00:45:09;4.80;99.90
46494;DHT22;53214;49.314;6.280;2024-02-28T00:47:36;4.90;99.90
46494;DHT22;53214;49.314;6.280;2024-02-28T00:50:04;4.80;99.90
46494;DHT22;53214;49.314;6.280;2024-02-28T00:52:31;4.90;99.90
46494;DHT22;53214;49.314;6.280;2024-02-28T00:54:59;4.90;99.90
46494;DHT22;53214;49.314;6.280;2024-02-28T00:57:26;4.90;99.90
46494;DHT22;53214;49.314;6.280;2024-02-28T00:59:53;4.90;99.90
46494;DHT22;53214;49.314;6.280;2024-02-28T01:02:21;5.00;99.90
46494;DHT22;53214;49.314;6.280;2024-02-28T01:04:48;5.00;99.90
46494;DHT22;53214;49.314;6.280;2024-02-28T01:07:15;5.00;99.90
46494;DHT22;53214;49.314;6.280;2024-02-28T01:09:41;4.90;99.90
46494;DHT22;53214;49.314;6.280;2024-02-28T01:12:08;5.00;99.90
46494;DHT22;53214;49.314;6.280;2024-02-28T01:14:35;5.00;99.90
46494;DHT22;53214;49.314;6.280;2024-02-28T01:17:02;5.00;99.90
46494;DHT22;53214;49.314;6.280;2024-02-28T01:19:28;5.00;99.90
46494;DHT22;53214;49.314;6.280;2024-02-28T01:21:55;5.00;99.90
46494;DHT22;53214;49.314;6.280;2024-02-28T01:24:22;5.00;99.90
46494;DHT22;53214;49.314;6.280;2024-02-28T01:26:49;5.00;99.90
46494;DHT22;53214;49.314;6.280;2024-02-28T01:29:16;5.10;99.90
46494;DHT22;53214;49.314;6.280;2024-02-28T01:31:42;5.00;99.90
46494;DHT22;53214;49.314;6.280;2024-02-28T01:34:09;5.10;99.90
46494;DHT22;53214;49.314;6.280;2024-02-28T01:36:36;5.10;99.90
46494;DHT22;53214;49.314;6.280;2024-02-28T01:39:03;5.20;99.90
46494;DHT22;53214;49.314;6.280;2024-02-28T01:41:29;5.20;99.90
46494;DHT22;53214;49.314;6.280;2024-02-28T01:43:56;5.20;99.90
46494;DHT22;53214;49.314;6.280;2024-02-28T01:46:26;5.20;99.90
46494;DHT22;53214;49.314;6.280;2024-02-28T01:48:54;5.30;99.90
46494;DHT22;53214;49.314;6.280;2024-02-28T01:51:25;5.40;99.90
46494;DHT22;53214;49.314;6.280;2024-02-28T01:53:54;5.50;99.90
46494;DHT22;53214;49.314;6.280;2024-02-28T01:56:23;5.40;99.90
46494;DHT22;53214;49.314;6.280;2024-02-28T01:58:50;5.40;99.90
46494;DHT22;53214;49.314;6.280;2024-02-28T02:01:17;5.50;99.90
46494;DHT22;53214;49.314;6.280;2024-02-28T02:03:44;5.50;99.90
46494;DHT22;53214;49.314;6.280;2024-02-28T02:06:11;5.50;99.90
46494;DHT22;53214;49.314;6.280;2024-02-28T02:08:39;5.50;99.90
46494;DHT22;53214;49.314;6.280;2024-02-28T02:11:05;5.40;99.90
46494;DHT22;53214;49.314;6.280;2024-02-28T02:13:33;5.40;99.90
46494;DHT22;53214;49.314;6.280;2024-02-28T02:15:59;5.40;99.90
46494;DHT22;53214;49.314;6.280;2024-02-28T02:18:26;5.40;99.90
46494;DHT22;53214;49.314;6.280;2024-02-28T02:21:02;5.40;99.90
46494;DHT22;53214;49.314;6.280;2024-02-28T02:23:30;5.40;99.90
46494;DHT22;53214;49.314;6.280;2024-02-28T02:25:58;5.30;99.90
46494;DHT22;53214;49.314;6.280;2024-02-28T02:28:25;5.40;99.90
46494;DHT22;53214;49.314;6.280;2024-02-28T02:30:51;5.40;99.90
46494;DHT22;53214;49.314;6.280;2024-02-28T02:33:18;5.40;99.90
46494;DHT22;53214;49.314;6.280;2024-02-28T02:35:45;5.50;99.90
46494;DHT22;53214;49.314;6.280;2024-02-28T02:38:12;5.50;99.90
46494;DHT22;53214;49.314;6.280;2024-02-28T02:40:39;5.40;99.90
46494;DHT22;53214;49.314;6.280;2024-02-28T02:43:05;5.50;99.90
46494;DHT22;53214;49.314;6.280;2024-02-28T02:45:32;5.50;99.90
46494;DHT22;53214;49.314;6.280;2024-02-28T02:47:59;5.50;99.90
46494;DHT22;53214;49.314;6.280;2024-02-28T02:50:26;5.60;99.90
46494;DHT22;53214;49.314;6.280;2024-02-28T02:52:53;5.60;99.90
46494;DHT22;53214;49.314;6.280;2024-02-28T02:55:19;5.70;99.90
46494;DHT22;53214;49.314;6.280;2024-02-28T02:57:46;5.70;99.90
46494;DHT22;53214;49.314;6.280;2024-02-28T03:00:13;5.70;99.90
46494;DHT22;53214;49.314;6.280;2024-02-28T03:02:40;5.70;99.90
46494;DHT22;53214;49.314;6.280;2024-02-28T03:05:07;5.80;99.90
46494;DHT22;53214;49.314;6.280;2024-02-28T03:07:34;5.80;99.90
46494;DHT22;53214;49.314;6.280;2024-02-28T03:10:01;5.80;99.90
46494;DHT22;53214;49.314;6.280;2024-02-28T03:12:29;5.70;99.90
46494;DHT22;53214;49.314;6.280;2024-02-28T03:14:56;5.80;99.90
46494;DHT22;53214;49.314;6.280;2024-02-28T03:17:23;5.80;99.90
46494;DHT22;53214;49.314;6.280;2024-02-28T03:19:50;5.80;99.90
46494;DHT22;53214;49.314;6.280;2024-02-28T03:22:17;5.80;99.90
46494;DHT22;53214;49.314;6.280;2024-02-28T03:24:44;5.90;99.90
46494;DHT22;53214;49.314;6.280;2024-02-28T03:27:10;5.80;99.90
46494;DHT22;53214;49.314;6.280;2024-02-28T03:29:37;5.80;99.90
46494;DHT22;53214;49.314;6.280;2024-02-28T03:32:04;5.90;99.90
46494;DHT22;53214;49.314;6.280;2024-02-28T03:34:31;5.90;99.90
46494;DHT22;53214;49.314;6.280;2024-02-28T03:36:58;5.90;99.90
46494;DHT22;53214;49.314;6.280;2024-02-28T03:39:25;5.90;99.90
46494;DHT22;53214;49.314;6.280;2024-02-28T03:41:52;5.90;99.90
46494;DHT22;53214;49.314;6.280;2024-02-28T03:44:19;5.80;99.90
46494;DHT22;53214;49.314;6.280;2024-02-28T03:46:45;5.90;99.90
46494;DHT22;53214;49.314;6.280;2024-02-28T03:49:12;5.90;99.90
46494;DHT22;53214;49.314;6.280;2024-02-28T03:51:40;5.90;99.90
46494;DHT22;53214;49.314;6.280;2024-02-28T03:54:08;6.10;99.90
46494;DHT22;53214;49.314;6.280;2024-02-28T03:56:35;6.00;99.90
46494;DHT22;53214;49.314;6.280;2024-02-28T03:59:02;6.00;99.90
46494;DHT22;53214;49.314;6.280;2024-02-28T04:01:30;6.00;99.90
46494;DHT22;53214;49.314;6.280;2024-02-28T04:03:58;6.00;99.90
46494;DHT22;53214;49.314;6.280;2024-02-28T04:06:25;6.00;99.90
46494;DHT22;53214;49.314;6.280;2024-02-28T04:08:52;6.00;99.90
46494;DHT22;53214;49.314;6.280;2024-02-28T04:11:19;6.00;99.90
46494;DHT22;53214;49.314;6.280;2024-02-28T04:13:46;5.90;99.90
46494;DHT22;53214;49.314;6.280;2024-02-28T04:16:13;5.90;99.90
46494;DHT22;53214;49.314;6.280;2024-02-28T04:18:40;5.90;99.90
46494;DHT22;53214;49.314;6.280;2024-02-28T04:21:07;5.90;99.90
46494;DHT22;53214;49.314;6.280;2024-02-28T04:23:34;6.00;99.90
46494;DHT22;53214;49.314;6.280;2024-02-28T04:26:00;6.10;99.90
46494;DHT22;53214;49.314;6.280;2024-02-28T04:28:28;6.00;99.90
46494;DHT22;53214;49.314;6.280;2024-02-28T04:30:55;6.10;99.90
46494;DHT22;53214;49.314;6.280;2024-02-28T04:33:23;6.10;99.90
46494;DHT22;53214;49.314;6.280;2024-02-28T04:35:49;6.10;99.90
46494;DHT22;53214;49.314;6.280;2024-02-28T04:38:16;6.20;99.90
46494;DHT22;53214;49.314;6.280;2024-02-28T04:40:43;6.20;99.90
46494;DHT22;53214;49.314;6.280;2024-02-28T04:43:10;6.20;99.90
46494;DHT22;53214;49.314;6.280;2024-02-28T04:45:36;6.20;99.90
46494;DHT22;53214;49.314;6.280;2024-02-28T04:48:04;6.20;99.90
46494;DHT22;53214;49.314;6.280;2024-02-28T04:50:31;6.20;99.90
46494;DHT22;53214;49.314;6.280;2024-02-28T04:52:58;6.30;99.90
46494;DHT22;53214;49.314;6.280;2024-02-28T04:55:25;6.30;99.90
46494;DHT22;53214;49.314;6.280;2024-02-28T04:57:52;6.30;99.90
46494;DHT22;53214;49.314;6.280;2024-02-28T05:00:19;6.30;99.90
46494;DHT22;53214;49.314;6.280;2024-02-28T05:02:45;6.30;99.90
46494;DHT22;53214;49.314;6.280;2024-02-28T05:05:12;6.20;99.90
46494;DHT22;53214;49.314;6.280;2024-02-28T05:07:39;6.20;99.90
46494;DHT22;53214;49.314;6.280;2024-02-28T05:10:07;6.20;99.90
46494;DHT22;53214;49.314;6.280;2024-02-28T05:12:34;6.10;99.90
46494;DHT22;53214;49.314;6.280;2024-02-28T05:15:01;6.10;99.90
46494;DHT22;53214;49.314;6.280;2024-02-28T05:17:28;6.10;99.90
46494;DHT22;53214;49.314;6.280;2024-02-28T05:19:55;6.10;99.90
46494;DHT22;53214;49.314;6.280;2024-02-28T05:22:23;6.10;99.90
46494;DHT22;53214;49.314;6.280;2024-02-28T05:24:50;6.10;99.90
46494;DHT22;53214;49.314;6.280;2024-02-28T05:27:17;6.10;99.90
46494;DHT22;53214;49.314;6.280;2024-02-28T05:29:44;6.10;99.90
46494;DHT22;53214;49.314;6.280;2024-02-28T05:32:11;6.00;99.90
46494;DHT22;53214;49.314;6.280;2024-02-28T05:34:38;6.00;99.90
46494;DHT22;53214;49.314;6.280;2024-02-28T05:37:05;5.90;99.90
46494;DHT22;53214;49.314;6.280;2024-02-28T05:39:32;6.00;99.90
46494;DHT22;53214;49.314;6.280;2024-02-28T05:41:58;6.00;99.90
46494;DHT22;53214;49.314;6.280;2024-02-28T05:44:25;6.00;99.90
46494;DHT22;53214;49.314;6.280;2024-02-28T05:46:52;6.00;99.90
46494;DHT22;53214;49.314;6.280;2024-02-28T05:49:19;5.90;99.90
46494;DHT22;53214;49.314;6.280;2024-02-28T05:51:45;5.90;99.90
46494;DHT22;53214;49.314;6.280;2024-02-28T05:54:13;5.80;99.90
46494;DHT22;53214;49.314;6.280;2024-02-28T05:56:40;5.90;99.90
46494;DHT22;53214;49.314;6.280;2024-02-28T05:59:07;6.00;99.90
46494;DHT22;53214;49.314;6.280;2024-02-28T06:01:34;6.00;99.90
46494;DHT22;53214;49.314;6.280;2024-02-28T06:04:02;6.00;99.90
46494;DHT22;53214;49.314;6.280;2024-02-28T06:06:29;6.10;99.90
46494;DHT22;53214;49.314;6.280;2024-02-28T06:08:56;6.10;99.90
46494;DHT22;53214;49.314;6.280;2024-02-28T06:11:23;6.10;99.90
46494;DHT22;53214;49.314;6.280;2024-02-28T06:13:51;6.20;99.90
46494;DHT22;53214;49.314;6.280;2024-02-28T06:16:17;6.20;99.90
46494;DHT22;53214;49.314;6.280;2024-02-28T06:18:45;6.20;99.90
46494;DHT22;53214;49.314;6.280;2024-02-28T06:21:13;6.30;99.90
46494;DHT22;53214;49.314;6.280;2024-02-28T06:23:41;6.30;99.90
46494;DHT22;53214;49.314;6.280;2024-02-28T06:26:08;6.30;99.90
46494;DHT22;53214;49.314;6.280;2024-02-28T06:28:41;6.40;99.90
46494;DHT22;53214;49.314;6.280;2024-02-28T06:31:14;6.40;99.90
46494;DHT22;53214;49.314;6.280;2024-02-28T06:33:41;6.40;99.90
46494;DHT22;53214;49.314;6.280;2024-02-28T06:36:08;6.50;99.90
46494;DHT22;53214;49.314;6.280;2024-02-28T06:38:35;6.40;99.90
46494;DHT22;53214;49.314;6.280;2024-02-28T06:41:05;6.50;99.90
46494;DHT22;53214;49.314;6.280;2024-02-28T06:43:34;6.50;99.90
46494;DHT22;53214;49.314;6.280;2024-02-28T06:46:04;6.60;99.90
46494;DHT22;53214;49.314;6.280;2024-02-28T06:48:31;6.50;99.90
46494;DHT22;53214;49.314;6.280;2024-02-28T06:50:58;6.60;99.90
46494;DHT22;53214;49.314;6.280;2024-02-28T06:53:25;6.60;99.90
46494;DHT22;53214;49.314;6.280;2024-02-28T06:55:53;6.70;99.90
46494;DHT22;53214;49.314;6.280;2024-02-28T06:58:19;6.70;99.90
46494;DHT22;53214;49.314;6.280;2024-02-28T07:00:48;6.70;99.90
46494;DHT22;53214;49.314;6.280;2024-02-28T07:03:20;6.70;99.90
46494;DHT22;53214;49.314;6.280;2024-02-28T07:05:47;6.70;99.90
46494;DHT22;53214;49.314;6.280;2024-02-28T07:08:13;6.80;99.90
46494;DHT22;53214;49.314;6.280;2024-02-28T07:10:41;6.80;99.90
46494;DHT22;53214;49.314;6.280;2024-02-28T07:13:10;6.90;99.90
46494;DHT22;53214;49.314;6.280;2024-02-28T07:15:37;6.90;99.90
46494;DHT22;53214;49.314;6.280;2024-02-28T07:18:05;6.90;99.90
46494;DHT22;53214;49.314;6.280;2024-02-28T07:20:32;6.90;99.90
46494;DHT22;53214;49.314;6.280;2024-02-28T07:22:59;6.90;99.90
46494;DHT22;53214;49.314;6.280;2024-02-28T07:25:26;6.90;99.90
46494;DHT22;53214;49.314;6.280;2024-02-28T07:27:53;7.00;99.90
46494;DHT22;53214;49.314;6.280;2024-02-28T07:30:20;7.00;99.90
46494;DHT22;53214;49.314;6.280;2024-02-28T07:32:47;7.00;99.90
46494;DHT22;53214;49.314;6.280;2024-02-28T07:35:16;7.10;99.90
46494;DHT22;53214;49.314;6.280;2024-02-28T07:37:43;7.10;99.90
46494;DHT22;53214;49.314;6.280;2024-02-28T07:40:10;7.20;99.90
46494;DHT22;53214;49.314;6.280;2024-02-28T07:42:37;7.20;99.90
46494;DHT22;53214;49.314;6.280;2024-02-28T07:45:04;7.40;99.90
46494;DHT22;53214;49.314;6.280;2024-02-28T07:47:31;7.60;99.90
46494;DHT22;53214;49.314;6.280;2024-02-28T07:49:57;7.70;99.90
46494;DHT22;53214;49.314;6.280;2024-02-28T07:52:24;7.80;99.90
46494;DHT22;53214;49.314;6.280;2024-02-28T07:54:51;7.80;99.90
46494;DHT22;53214;49.314;6.280;2024-02-28T07:57:18;7.70;99.90
46494;DHT22;53214;49.314;6.280;2024-02-28T07:59:45;7.80;99.90
46494;DHT22;53214;49.314;6.280;2024-02-28T08:02:11;7.70;99.90
46494;DHT22;53214;49.314;6.280;2024-02-28T08:04:39;7.70;99.90
46494;DHT22;53214;49.314;6.280;2024-02-28T08:07:06;7.80;99.90
46494;DHT22;53214;49.314;6.280;2024-02-28T08:09:33;7.90;99.90
46494;DHT22;53214;49.314;6.280;2024-02-28T08:12:00;7.90;99.90
46494;DHT22;53214;49.314;6.280;2024-02-28T08:14:27;8.00;99.90
46494;DHT22;53214;49.314;6.280;2024-02-28T08:16:55;8.00;99.90
46494;DHT22;53214;49.314;6.280;2024-02-28T08:19:21;8.00;99.90
46494;DHT22;53214;49.314;6.280;2024-02-28T08:21:48;8.00;99.90
46494;DHT22;53214;49.314;6.280;2024-02-28T08:24:15;8.10;99.90
46494;DHT22;53214;49.314;6.280;2024-02-28T08:26:42;8.10;99.90
46494;DHT22;53214;49.314;6.280;2024-02-28T08:29:09;8.20;99.90
46494;DHT22;53214;49.314;6.280;2024-02-28T08:31:43;8.30;99.90
46494;DHT22;53214;49.314;6.280;2024-02-28T08:34:10;8.40;99.90
46494;DHT22;53214;49.314;6.280;2024-02-28T08:36:38;8.60;99.90
46494;DHT22;53214;49.314;6.280;2024-02-28T08:39:05;8.90;99.90
46494;DHT22;53214;49.314;6.280;2024-02-28T08:41:33;9.00;99.90
46494;DHT22;53214;49.314;6.280;2024-02-28T08:44:00;9.10;99.90
46494;DHT22;53214;49.314;6.280;2024-02-28T08:46:27;9.20;99.90
46494;DHT22;53214;49.314;6.280;2024-02-28T08:48:53;9.40;99.90
46494;DHT22;53214;49.314;6.280;2024-02-28T08:51:20;9.60;99.90
46494;DHT22;53214;49.314;6.280;2024-02-28T08:53:48;9.70;99.90
46494;DHT22;53214;49.314;6.280;2024-02-28T08:56:15;9.70;99.90
46494;DHT22;53214;49.314;6.280;2024-02-28T08:58:41;9.80;99.90
46494;DHT22;53214;49.314;6.280;2024-02-28T09:01:08;9.80;99.90
46494;DHT22;53214;49.314;6.280;2024-02-28T09:03:35;9.80;99.90
46494;DHT22;53214;49.314;6.280;2024-02-28T09:06:02;9.80;99.90
46494;DHT22;53214;49.314;6.280;2024-02-28T09:08:29;9.80;99.90
46494;DHT22;53214;49.314;6.280;2024-02-28T09:10:56;9.70;99.90
46494;DHT22;53214;49.314;6.280;2024-02-28T09:13:23;9.80;99.90
46494;DHT22;53214;49.314;6.280;2024-02-28T09:15:50;9.70;99.90
46494;DHT22;53214;49.314;6.280;2024-02-28T09:18:20;9.70;99.90
46494;DHT22;53214;49.314;6.280;2024-02-28T09:20:47;9.80;99.90
46494;DHT22;53214;49.314;6.280;2024-02-28T09:23:14;9.90;99.90
46494;DHT22;53214;49.314;6.280;2024-02-28T09:25:41;9.90;99.90
46494;DHT22;53214;49.314;6.280;2024-02-28T09:28:08;9.90;99.90
46494;DHT22;53214;49.314;6.280;2024-02-28T09:30:37;9.90;99.90
46494;DHT22;53214;49.314;6.280;2024-02-28T09:33:13;9.90;99.90
46494;DHT22;53214;49.314;6.280;2024-02-28T09:35:41;9.90;99.90
46494;DHT22;53214;49.314;6.280;2024-02-28T09:38:08;9.90;99.90
46494;DHT22;53214;49.314;6.280;2024-02-28T09:40:35;10.00;99.90
46494;DHT22;53214;49.314;6.280;2024-02-28T09:43:03;10.00;99.90
46494;DHT22;53214;49.314;6.280;2024-02-28T09:45:31;10.10;99.90
46494;DHT22;53214;49.314;6.280;2024-02-28T09:47:59;10.10;99.90
46494;DHT22;53214;49.314;6.280;2024-02-28T09:50:27;10.00;99.90
46494;DHT22;53214;49.314;6.280;2024-02-28T09:52:54;10.20;99.90
46494;DHT22;53214;49.314;6.280;2024-02-28T09:55:35;10.20;99.90
46494;DHT22;53214;49.314;6.280;2024-02-28T09:58:02;10.20;99.90
46494;DHT22;53214;49.314;6.280;2024-02-28T10:00:31;10.20;99.90
46494;DHT22;53214;49.314;6.280;2024-02-28T10:02:58;10.20;99.90
46494;DHT22;53214;49.314;6.280;2024-02-28T10:05:25;10.20;99.90
46494;DHT22;53214;49.314;6.280;2024-02-28T10:07:55;10.30;99.90
46494;DHT22;53214;49.314;6.280;2024-02-28T10:10:22;10.30;99.90
46494;DHT22;53214;49.314;6.280;2024-02-28T10:12:49;10.30;99.90
46494;DHT22;53214;49.314;6.280;2024-02-28T10:15:16;10.40;99.90
46494;DHT22;53214;49.314;6.280;2024-02-28T10:17:43;10.50;99.90
46494;DHT22;53214;49.314;6.280;2024-02-28T10:20:11;10.60;99.90
46494;DHT22;53214;49.314;6.280;2024-02-28T10:22:38;10.60;99.90
46494;DHT22;53214;49.314;6.280;2024-02-28T10:25:05;10.70;99.90
46494;DHT22;53214;49.314;6.280;2024-02-28T10:27:36;10.60;99.90
46494;DHT22;53214;49.314;6.280;2024-02-28T10:30:03;10.60;99.90
46494;DHT22;53214;49.314;6.280;2024-02-28T10:32:34;10.50;99.90
46494;DHT22;53214;49.314;6.280;2024-02-28T10:35:03;10.50;99.90
46494;DHT22;53214;49.314;6.280;2024-02-28T10:37:32;10.50;99.90
46494;DHT22;53214;49.314;6.280;2024-02-28T10:40:00;10.50;99.90
46494;DHT22;53214;49.314;6.280;2024-02-28T10:42:30;10.50;99.90
46494;DHT22;53214;49.314;6.280;2024-02-28T10:44:57;10.50;99.90
46494;DHT22;53214;49.314;6.280;2024-02-28T10:47:45;10.50;99.90
46494;DHT22;53214;49.314;6.280;2024-02-28T10:50:14;10.50;99.90
46494;DHT22;53214;49.314;6.280;2024-02-28T10:52:45;10.50;99.90
46494;DHT22;53214;49.314;6.280;2024-02-28T10:55:21;10.60;99.90
46494;DHT22;53214;49.314;6.280;2024-02-28T10:57:57;10.60;99.90
46494;DHT22;53214;49.314;6.280;2024-02-28T11:00:25;10.60;99.90
46494;DHT22;53214;49.314;6.280;2024-02-28T11:02:51;10.70;99.90
46494;DHT22;53214;49.314;6.280;2024-02-28T11:05:19;10.70;99.90
46494;DHT22;53214;49.314;6.280;2024-02-28T11:07:46;10.60;99.90
46494;DHT22;53214;49.314;6.280;2024-02-28T11:10:14;10.60;99.90
46494;DHT22;53214;49.314;6.280;2024-02-28T11:12:41;10.60;99.90
46494;DHT22;53214;49.314;6.280;2024-02-28T11:15:16;10.70;99.90
46494;DHT22;53214;49.314;6.280;2024-02-28T11:17:44;10.80;99.90
46494;DHT22;53214;49.314;6.280;2024-02-28T11:20:11;10.80;99.90
46494;DHT22;53214;49.314;6.280;2024-02-28T11:22:39;10.90;99.90
46494;DHT22;53214;49.314;6.280;2024-02-28T11:25:06;10.90;99.90
46494;DHT22;53214;49.314;6.280;2024-02-28T11:27:34;11.00;99.90
46494;DHT22;53214;49.314;6.280;2024-02-28T11:30:00;11.10;99.90
46494;DHT22;53214;49.314;6.280;2024-02-28T11:32:30;11.10;99.90
46494;DHT22;53214;49.314;6.280;2024-02-28T11:35:01;11.20;99.90
46494;DHT22;53214;49.314;6.280;2024-02-28T11:37:29;11.40;99.90
46494;DHT22;53214;49.314;6.280;2024-02-28T11:39:55;11.50;99.90
46494;DHT22;53214;49.314;6.280;2024-02-28T11:42:22;11.70;99.90
46494;DHT22;53214;49.314;6.280;2024-02-28T11:44:56;11.80;99.90
46494;DHT22;53214;49.314;6.280;2024-02-28T11:47:28;11.90;99.90
46494;DHT22;53214;49.314;6.280;2024-02-28T11:49:58;12.00;99.90
46494;DHT22;53214;49.314;6.280;2024-02-28T11:52:25;12.10;99.90
46494;DHT22;53214;49.314;6.280;2024-02-28T11:54:52;12.10;99.90
46494;DHT22;53214;49.314;6.280;2024-02-28T11:57:20;12.10;99.90
46494;DHT22;53214;49.314;6.280;2024-02-28T11:59:47;12.10;99.90
46494;DHT22;53214;49.314;6.280;2024-02-28T12:02:18;12.20;99.90
46494;DHT22;53214;49.314;6.280;2024-02-28T12:04:45;12.20;99.90
46494;DHT22;53214;49.314;6.280;2024-02-28T12:07:12;12.30;99.90
46494;DHT22;53214;49.314;6.280;2024-02-28T12:09:39;12.40;99.90
46494;DHT22;53214;49.314;6.280;2024-02-28T12:12:08;12.50;99.90
46494;DHT22;53214;49.314;6.280;2024-02-28T12:14:38;12.60;99.90
46494;DHT22;53214;49.314;6.280;2024-02-28T12:17:05;12.60;99.90
46494;DHT22;53214;49.314;6.280;2024-02-28T12:19:32;12.70;99.90
46494;DHT22;53214;49.314;6.280;2024-02-28T12:22:01;12.60;99.90
46494;DHT22;53214;49.314;6.280;2024-02-28T12:24:27;12.50;99.90
46494;DHT22;53214;49.314;6.280;2024-02-28T12:26:54;12.50;99.90
46494;DHT22;53214;49.314;6.280;2024-02-28T12:29:21;12.40;99.90
46494;DHT22;53214;49.314;6.280;2024-02-28T12:31:48;12.50;99.90
46494;DHT22;53214;49.314;6.280;2024-02-28T12:34:15;12.40;99.90
46494;DHT22;53214;49.314;6.280;2024-02-28T12:36:42;12.40;99.90
46494;DHT22;53214;49.314;6.280;2024-02-28T12:39:12;12.40;99.90
46494;DHT22;53214;49.314;6.280;2024-02-28T12:41:39;12.30;99.90
46494;DHT22;53214;49.314;6.280;2024-02-28T12:44:07;12.40;99.90
46494;DHT22;53214;49.314;6.280;2024-02-28T12:46:35;12.50;99.90
46494;DHT22;53214;49.314;6.280;2024-02-28T12:49:02;12.50;99.90
46494;DHT22;53214;49.314;6.280;2024-02-28T12:51:40;12.60;99.90
46494;DHT22;53214;49.314;6.280;2024-02-28T12:54:08;13.10;99.90
46494;DHT22;53214;49.314;6.280;2024-02-28T12:56:35;13.30;99.90
46494;DHT22;53214;49.314;6.280;2024-02-28T12:59:03;13.40;99.90
46494;DHT22;53214;49.314;6.280;2024-02-28T13:01:30;13.40;99.90
46494;DHT22;53214;49.314;6.280;2024-02-28T13:03:57;13.30;99.90
46494;DHT22;53214;49.314;6.280;2024-02-28T13:06:24;13.10;99.90
46494;DHT22;53214;49.314;6.280;2024-02-28T13:08:51;13.00;99.90
46494;DHT22;53214;49.314;6.280;2024-02-28T13:11:23;12.90;99.90
46494;DHT22;53214;49.314;6.280;2024-02-28T13:13:51;12.80;99.90
46494;DHT22;53214;49.314;6.280;2024-02-28T13:16:19;12.70;99.90
46494;DHT22;53214;49.314;6.280;2024-02-28T13:18:46;12.60;99.90
46494;DHT22;53214;49.314;6.280;2024-02-28T13:21:13;12.70;99.90
46494;DHT22;53214;49.314;6.280;2024-02-28T13:23:40;12.80;99.90
46494;DHT22;53214;49.314;6.280;2024-02-28T13:26:07;12.80;99.90
46494;DHT22;53214;49.314;6.280;2024-02-28T13:28:34;12.70;99.90
46494;DHT22;53214;49.314;6.280;2024-02-28T13:31:03;12.60;99.90
46494;DHT22;53214;49.314;6.280;2024-02-28T13:33:33;12.60;99.90
46494;DHT22;53214;49.314;6.280;2024-02-28T13:36:00;12.60;99.90
46494;DHT22;53214;49.314;6.280;2024-02-28T13:38:27;12.50;99.90
46494;DHT22;53214;49.314;6.280;2024-02-28T13:40:53;12.50;99.90
46494;DHT22;53214;49.314;6.280;2024-02-28T13:43:20;12.50;99.90
46494;DHT22;53214;49.314;6.280;2024-02-28T13:45:49;12.40;99.90
46494;DHT22;53214;49.314;6.280;2024-02-28T13:48:23;12.40;99.90
46494;DHT22;53214;49.314;6.280;2024-02-28T13:50:55;12.40;99.90
46494;DHT22;53214;49.314;6.280;2024-02-28T13:53:22;12.50;99.90
46494;DHT22;53214;49.314;6.280;2024-02-28T13:55:48;12.50;99.90
46494;DHT22;53214;49.314;6.280;2024-02-28T13:58:15;12.50;99.90
46494;DHT22;53214;49.314;6.280;2024-02-28T14:00:45;12.60;99.90
46494;DHT22;53214;49.314;6.280;2024-02-28T14:03:12;12.80;99.90
46494;DHT22;53214;49.314;6.280;2024-02-28T14:05:39;12.90;99.90
46494;DHT22;53214;49.314;6.280;2024-02-28T14:08:07;12.80;99.90
46494;DHT22;53214;49.314;6.280;2024-02-28T14:10:36;12.80;99.90
46494;DHT22;53214;49.314;6.280;2024-02-28T14:13:04;12.90;99.90
46494;DHT22;53214;49.314;6.280;2024-02-28T14:15:31;12.80;99.90
46494;DHT22;53214;49.314;6.280;2024-02-28T14:17:57;12.80;99.90
46494;DHT22;53214;49.314;6.280;2024-02-28T14:20:24;12.70;99.90
46494;DHT22;53214;49.314;6.280;2024-02-28T14:22:52;12.70;99.90
46494;DHT22;53214;49.314;6.280;2024-02-28T14:25:19;12.70;99.90
46494;DHT22;53214;49.314;6.280;2024-02-28T14:27:48;12.70;99.90
46494;DHT22;53214;49.314;6.280;2024-02-28T14:30:15;12.60;99.90
46494;DHT22;53214;49.314;6.280;2024-02-28T14:32:43;12.60;99.90
46494;DHT22;53214;49.314;6.280;2024-02-28T14:35:10;12.50;99.90
46494;DHT22;53214;49.314;6.280;2024-02-28T14:37:38;12.50;99.90
46494;DHT22;53214;49.314;6.280;2024-02-28T14:40:07;12.40;99.90
46494;DHT22;53214;49.314;6.280;2024-02-28T14:42:41;12.40;99.90
46494;DHT22;53214;49.314;6.280;2024-02-28T14:45:09;12.30;99.90
46494;DHT22;53214;49.314;6.280;2024-02-28T14:47:41;12.30;99.90
46494;DHT22;53214;49.314;6.280;2024-02-28T14:50:10;12.30;99.90
46494;DHT22;53214;49.314;6.280;2024-02-28T14:52:41;12.30;99.90
46494;DHT22;53214;49.314;6.280;2024-02-28T14:55:09;12.40;99.90
46494;DHT22;53214;49.314;6.280;2024-02-28T14:57:37;12.40;99.90
46494;DHT22;53214;49.314;6.280;2024-02-28T15:00:07;12.50;99.90
46494;DHT22;53214;49.314;6.280;2024-02-28T15:02:35;12.70;99.90
46494;DHT22;53214;49.314;6.280;2024-02-28T15:05:02;12.80;99.90
46494;DHT22;53214;49.314;6.280;2024-02-28T15:07:33;12.90;99.90
46494;DHT22;53214;49.314;6.280;2024-02-28T15:10:02;12.80;99.90
46494;DHT22;53214;49.314;6.280;2024-02-28T15:12:31;12.70;99.90
46494;DHT22;53214;49.314;6.280;2024-02-28T15:15:00;12.60;99.90
46494;DHT22;53214;49.314;6.280;2024-02-28T15:17:29;12.60;99.90
46494;DHT22;53214;49.314;6.280;2024-02-28T15:19:55;12.50;99.90
46494;DHT22;53214;49.314;6.280;2024-02-28T15:22:22;12.50;99.90
46494;DHT22;53214;49.314;6.280;2024-02-28T15:24:49;12.40;99.90
46494;DHT22;53214;49.314;6.280;2024-02-28T15:27:16;12.40;99.90
46494;DHT22;53214;49.314;6.280;2024-02-28T15:29:42;12.30;99.90
46494;DHT22;53214;49.314;6.280;2024-02-28T15:32:10;12.20;99.90
46494;DHT22;53214;49.314;6.280;2024-02-28T15:34:38;12.20;99.90
46494;DHT22;53214;49.314;6.280;2024-02-28T15:37:05;12.20;99.90
46494;DHT22;53214;49.314;6.280;2024-02-28T15:39:32;12.10;99.90
46494;DHT22;53214;49.314;6.280;2024-02-28T15:41:59;12.10;99.90